sensor_id;sensor_type;location;lat;lon;timestamp;P1;durP1;ratioP1;P2;durP2;ratioP2
20095;SDS011;10207;50.942;6.900;2022-12-29T00:01:23;1.30;;;0.50;;
20095;SDS011;10207;50.942;6.900;2022-12-29T00:03:49;0.88;;;0.40;;
20095;SDS011;10207;50.942;6.900;2022-12-29T00:06:14;0.70;;;0.30;;
20095;SDS011;10207;50.942;6.900;2022-12-29T00:08:40;2.05;;;0.60;;
20095;SDS011;10207;50.942;6.900;2022-12-29T00:11:10;0.70;;;0.40;;
20095;SDS011;10207;50.942;6.900;2022-12-29T00:13:36;0.68;;;0.30;;
20095;SDS011;10207;50.942;6.900;2022-12-29T00:16:20;0.47;;;0.40;;
20095;SDS011;10207;50.942;6.900;2022-12-29T00:18:46;1.65;;;0.40;;
20095;SDS011;10207;50.942;6.900;2022-12-29T00:21:16;0.43;;;0.25;;
20095;SDS011;10207;50.942;6.900;2022-12-29T00:24:01;0.20;;;0.20;;
20095;SDS011;10207;50.942;6.900;2022-12-29T00:26:55;1.35;;;0.40;;
20095;SDS011;10207;50.942;6.900;2022-12-29T00:29:40;1.55;;;0.30;;
20095;SDS011;10207;50.942;6.900;2022-12-29T00:32:24;0.90;;;0.50;;
20095;SDS011;10207;50.942;6.900;2022-12-29T00:35:11;0.75;;;0.20;;
20095;SDS011;10207;50.942;6.900;2022-12-29T00:37:39;0.45;;;0.20;;
20095;SDS011;10207;50.942;6.900;2022-12-29T00:40:24;1.10;;;0.20;;
20095;SDS011;10207;50.942;6.900;2022-12-29T00:43:09;0.40;;;0.22;;
20095;SDS011;10207;50.942;6.900;2022-12-29T00:45:53;0.10;;;0.10;;
20095;SDS011;10207;50.942;6.900;2022-12-29T00:48:19;0.20;;;0.10;;
20095;SDS011;10207;50.942;6.900;2022-12-29T00:51:05;0.00;;;0.00;;
20095;SDS011;10207;50.942;6.900;2022-12-29T00:53:31;0.32;;;0.10;;
20095;SDS011;10207;50.942;6.900;2022-12-29T00:55:57;1.55;;;0.15;;
20095;SDS011;10207;50.942;6.900;2022-12-29T00:58:23;0.38;;;0.10;;
20095;SDS011;10207;50.942;6.900;2022-12-29T01:00:49;1.70;;;0.20;;
20095;SDS011;10207;50.942;6.900;2022-12-29T01:03:14;1.20;;;0.15;;
20095;SDS011;10207;50.942;6.900;2022-12-29T01:05:40;0.45;;;0.10;;
20095;SDS011;10207;50.942;6.900;2022-12-29T01:08:06;0.10;;;0.10;;
20095;SDS011;10207;50.942;6.900;2022-12-29T01:10:31;0.63;;;0.10;;
20095;SDS011;10207;50.942;6.900;2022-12-29T01:12:58;1.90;;;0.30;;
20095;SDS011;10207;50.942;6.900;2022-12-29T01:15:23;1.65;;;0.10;;
20095;SDS011;10207;50.942;6.900;2022-12-29T01:17:49;0.20;;;0.10;;
20095;SDS011;10207;50.942;6.900;2022-12-29T01:20:15;0.20;;;0.15;;
20095;SDS011;10207;50.942;6.900;2022-12-29T01:22:41;0.98;;;0.10;;
20095;SDS011;10207;50.942;6.900;2022-12-29T01:25:07;0.65;;;0.20;;
20095;SDS011;10207;50.942;6.900;2022-12-29T01:27:34;0.40;;;0.08;;
20095;SDS011;10207;50.942;6.900;2022-12-29T01:29:59;0.75;;;0.05;;
20095;SDS011;10207;50.942;6.900;2022-12-29T01:32:25;1.08;;;0.20;;
20095;SDS011;10207;50.942;6.900;2022-12-29T01:34:51;0.55;;;0.20;;
20095;SDS011;10207;50.942;6.900;2022-12-29T01:37:17;0.47;;;0.20;;
20095;SDS011;10207;50.942;6.900;2022-12-29T01:39:43;0.20;;;0.10;;
20095;SDS011;10207;50.942;6.900;2022-12-29T01:42:16;0.50;;;0.20;;
20095;SDS011;10207;50.942;6.900;2022-12-29T01:44:50;0.03;;;0.03;;
20095;SDS011;10207;50.942;6.900;2022-12-29T01:47:18;0.90;;;0.10;;
20095;SDS011;10207;50.942;6.900;2022-12-29T01:49:46;0.10;;;0.10;;
20095;SDS011;10207;50.942;6.900;2022-12-29T01:52:12;0.50;;;0.10;;
20095;SDS011;10207;50.942;6.900;2022-12-29T01:54:40;0.38;;;0.20;;
20095;SDS011;10207;50.942;6.900;2022-12-29T01:57:08;0.10;;;0.10;;
20095;SDS011;10207;50.942;6.900;2022-12-29T01:59:38;0.10;;;0.10;;
20095;SDS011;10207;50.942;6.900;2022-12-29T02:02:05;0.40;;;0.10;;
20095;SDS011;10207;50.942;6.900;2022-12-29T02:04:31;0.30;;;0.30;;
20095;SDS011;10207;50.942;6.900;2022-12-29T02:07:05;0.10;;;0.10;;
20095;SDS011;10207;50.942;6.900;2022-12-29T02:09:34;2.83;;;0.30;;
20095;SDS011;10207;50.942;6.900;2022-12-29T02:11:59;0.80;;;0.28;;
20095;SDS011;10207;50.942;6.900;2022-12-29T02:14:26;0.43;;;0.20;;
20095;SDS011;10207;50.942;6.900;2022-12-29T02:24:47;1.02;;;0.30;;
20095;SDS011;10207;50.942;6.900;2022-12-29T02:35:09;0.98;;;0.30;;
20095;SDS011;10207;50.942;6.900;2022-12-29T02:40:14;2.83;;;0.40;;
20095;SDS011;10207;50.942;6.900;2022-12-29T02:42:46;0.50;;;0.30;;
20095;SDS011;10207;50.942;6.900;2022-12-29T02:50:15;1.70;;;1.13;;
20095;SDS011;10207;50.942;6.900;2022-12-29T02:53:00;2.05;;;0.40;;
20095;SDS011;10207;50.942;6.900;2022-12-29T02:55:27;0.93;;;0.40;;
20095;SDS011;10207;50.942;6.900;2022-12-29T03:00:33;2.17;;;0.60;;
20095;SDS011;10207;50.942;6.900;2022-12-29T03:08:00;0.93;;;0.30;;
20095;SDS011;10207;50.942;6.900;2022-12-29T03:19:04;1.65;;;0.20;;
20095;SDS011;10207;50.942;6.900;2022-12-29T03:21:37;0.52;;;0.20;;
20095;SDS011;10207;50.942;6.900;2022-12-29T03:24:24;0.20;;;0.10;;
20095;SDS011;10207;50.942;6.900;2022-12-29T03:26:51;0.43;;;0.17;;
20095;SDS011;10207;50.942;6.900;2022-12-29T03:29:19;0.43;;;0.20;;
20095;SDS011;10207;50.942;6.900;2022-12-29T03:31:47;0.00;;;0.00;;
20095;SDS011;10207;50.942;6.900;2022-12-29T03:34:13;1.60;;;0.20;;
20095;SDS011;10207;50.942;6.900;2022-12-29T03:36:47;1.10;;;0.20;;
20095;SDS011;10207;50.942;6.900;2022-12-29T03:39:13;0.20;;;0.17;;
20095;SDS011;10207;50.942;6.900;2022-12-29T03:41:42;0.73;;;0.15;;
20095;SDS011;10207;50.942;6.900;2022-12-29T03:44:11;0.35;;;0.15;;
20095;SDS011;10207;50.942;6.900;2022-12-29T03:46:38;0.73;;;0.25;;
20095;SDS011;10207;50.942;6.900;2022-12-29T03:49:04;0.65;;;0.28;;
20095;SDS011;10207;50.942;6.900;2022-12-29T03:51:29;0.40;;;0.20;;
20095;SDS011;10207;50.942;6.900;2022-12-29T03:53:56;0.30;;;0.10;;
20095;SDS011;10207;50.942;6.900;2022-12-29T03:56:22;0.30;;;0.10;;
20095;SDS011;10207;50.942;6.900;2022-12-29T03:58:48;0.30;;;0.10;;
20095;SDS011;10207;50.942;6.900;2022-12-29T04:01:19;0.63;;;0.30;;
20095;SDS011;10207;50.942;6.900;2022-12-29T04:03:45;1.30;;;0.10;;
20095;SDS011;10207;50.942;6.900;2022-12-29T04:06:11;0.90;;;0.30;;
20095;SDS011;10207;50.942;6.900;2022-12-29T04:08:43;0.52;;;0.22;;
20095;SDS011;10207;50.942;6.900;2022-12-29T04:11:08;4.82;;;0.40;;
20095;SDS011;10207;50.942;6.900;2022-12-29T04:13:34;0.40;;;0.30;;
20095;SDS011;10207;50.942;6.900;2022-12-29T04:16:01;0.93;;;0.30;;
20095;SDS011;10207;50.942;6.900;2022-12-29T04:18:27;1.80;;;0.60;;
20095;SDS011;10207;50.942;6.900;2022-12-29T04:20:52;0.45;;;0.30;;
20095;SDS011;10207;50.942;6.900;2022-12-29T04:23:31;0.77;;;0.40;;
20095;SDS011;10207;50.942;6.900;2022-12-29T04:25:58;1.55;;;0.43;;
20095;SDS011;10207;50.942;6.900;2022-12-29T04:28:25;3.25;;;0.40;;
20095;SDS011;10207;50.942;6.900;2022-12-29T04:30:56;2.05;;;0.40;;
20095;SDS011;10207;50.942;6.900;2022-12-29T04:33:30;0.80;;;0.32;;
20095;SDS011;10207;50.942;6.900;2022-12-29T04:35:57;0.88;;;0.30;;
20095;SDS011;10207;50.942;6.900;2022-12-29T04:38:23;2.33;;;0.52;;
20095;SDS011;10207;50.942;6.900;2022-12-29T04:40:50;1.15;;;0.30;;
20095;SDS011;10207;50.942;6.900;2022-12-29T04:43:17;4.43;;;0.30;;
20095;SDS011;10207;50.942;6.900;2022-12-29T04:46:17;1.15;;;0.25;;
20095;SDS011;10207;50.942;6.900;2022-12-29T04:48:51;0.85;;;0.30;;
20095;SDS011;10207;50.942;6.900;2022-12-29T04:51:35;0.50;;;0.28;;
20095;SDS011;10207;50.942;6.900;2022-12-29T04:54:01;0.63;;;0.30;;
20095;SDS011;10207;50.942;6.900;2022-12-29T04:56:27;0.85;;;0.17;;
20095;SDS011;10207;50.942;6.900;2022-12-29T04:58:53;0.55;;;0.20;;
20095;SDS011;10207;50.942;6.900;2022-12-29T05:01:20;1.38;;;0.28;;
20095;SDS011;10207;50.942;6.900;2022-12-29T05:03:46;1.65;;;0.38;;
20095;SDS011;10207;50.942;6.900;2022-12-29T05:06:11;0.68;;;0.30;;
20095;SDS011;10207;50.942;6.900;2022-12-29T05:08:37;0.73;;;0.20;;
20095;SDS011;10207;50.942;6.900;2022-12-29T05:11:04;1.42;;;0.40;;
20095;SDS011;10207;50.942;6.900;2022-12-29T05:13:30;1.75;;;0.20;;
20095;SDS011;10207;50.942;6.900;2022-12-29T05:15:56;0.85;;;0.22;;
20095;SDS011;10207;50.942;6.900;2022-12-29T05:18:23;0.93;;;0.30;;
20095;SDS011;10207;50.942;6.900;2022-12-29T05:20:49;0.63;;;0.20;;
20095;SDS011;10207;50.942;6.900;2022-12-29T05:23:15;0.98;;;0.28;;
20095;SDS011;10207;50.942;6.900;2022-12-29T05:25:42;0.95;;;0.20;;
20095;SDS011;10207;50.942;6.900;2022-12-29T05:28:32;0.20;;;0.20;;
20095;SDS011;10207;50.942;6.900;2022-12-29T05:31:04;1.95;;;0.30;;
20095;SDS011;10207;50.942;6.900;2022-12-29T05:33:31;1.02;;;0.20;;
20095;SDS011;10207;50.942;6.900;2022-12-29T05:35:57;1.05;;;0.50;;
20095;SDS011;10207;50.942;6.900;2022-12-29T05:38:23;0.88;;;0.20;;
20095;SDS011;10207;50.942;6.900;2022-12-29T05:40:49;1.92;;;0.30;;
20095;SDS011;10207;50.942;6.900;2022-12-29T05:43:45;1.23;;;0.10;;
20095;SDS011;10207;50.942;6.900;2022-12-29T05:46:38;0.68;;;0.40;;
20095;SDS011;10207;50.942;6.900;2022-12-29T05:49:09;0.85;;;0.20;;
20095;SDS011;10207;50.942;6.900;2022-12-29T05:51:51;1.42;;;0.40;;
20095;SDS011;10207;50.942;6.900;2022-12-29T05:54:17;0.28;;;0.20;;
20095;SDS011;10207;50.942;6.900;2022-12-29T05:56:43;0.40;;;0.10;;
20095;SDS011;10207;50.942;6.900;2022-12-29T05:59:09;1.73;;;0.28;;
20095;SDS011;10207;50.942;6.900;2022-12-29T06:01:35;1.20;;;0.60;;
20095;SDS011;10207;50.942;6.900;2022-12-29T06:04:01;0.70;;;0.15;;
20095;SDS011;10207;50.942;6.900;2022-12-29T06:06:27;1.70;;;0.20;;
20095;SDS011;10207;50.942;6.900;2022-12-29T06:08:53;0.95;;;0.25;;
20095;SDS011;10207;50.942;6.900;2022-12-29T06:11:19;1.35;;;0.50;;
20095;SDS011;10207;50.942;6.900;2022-12-29T06:13:51;1.42;;;0.30;;
20095;SDS011;10207;50.942;6.900;2022-12-29T06:16:17;1.00;;;0.28;;
20095;SDS011;10207;50.942;6.900;2022-12-29T06:18:42;0.43;;;0.20;;
20095;SDS011;10207;50.942;6.900;2022-12-29T06:21:09;0.73;;;0.20;;
20095;SDS011;10207;50.942;6.900;2022-12-29T06:23:35;1.90;;;0.15;;
20095;SDS011;10207;50.942;6.900;2022-12-29T06:26:02;0.25;;;0.20;;
20095;SDS011;10207;50.942;6.900;2022-12-29T06:28:28;1.15;;;0.25;;
20095;SDS011;10207;50.942;6.900;2022-12-29T06:30:54;1.52;;;0.30;;
20095;SDS011;10207;50.942;6.900;2022-12-29T06:33:20;0.32;;;0.13;;
20095;SDS011;10207;50.942;6.900;2022-12-29T06:35:46;1.02;;;0.13;;
20095;SDS011;10207;50.942;6.900;2022-12-29T06:38:13;0.77;;;0.25;;
20095;SDS011;10207;50.942;6.900;2022-12-29T06:40:39;1.42;;;0.32;;
20095;SDS011;10207;50.942;6.900;2022-12-29T06:43:29;0.70;;;0.25;;
20095;SDS011;10207;50.942;6.900;2022-12-29T06:46:14;1.42;;;1.25;;
20095;SDS011;10207;50.942;6.900;2022-12-29T06:48:40;0.95;;;0.43;;
20095;SDS011;10207;50.942;6.900;2022-12-29T06:51:07;1.00;;;0.20;;
20095;SDS011;10207;50.942;6.900;2022-12-29T06:53:33;0.63;;;0.30;;
20095;SDS011;10207;50.942;6.900;2022-12-29T06:55:59;0.85;;;0.85;;
20095;SDS011;10207;50.942;6.900;2022-12-29T06:58:24;1.27;;;0.20;;
20095;SDS011;10207;50.942;6.900;2022-12-29T07:00:50;2.28;;;0.25;;
20095;SDS011;10207;50.942;6.900;2022-12-29T07:03:16;1.30;;;0.22;;
20095;SDS011;10207;50.942;6.900;2022-12-29T07:05:41;0.80;;;0.22;;
20095;SDS011;10207;50.942;6.900;2022-12-29T07:08:07;1.38;;;0.20;;
20095;SDS011;10207;50.942;6.900;2022-12-29T07:10:33;0.57;;;0.17;;
20095;SDS011;10207;50.942;6.900;2022-12-29T07:12:59;0.85;;;0.30;;
20095;SDS011;10207;50.942;6.900;2022-12-29T07:15:24;1.40;;;0.20;;
20095;SDS011;10207;50.942;6.900;2022-12-29T07:17:50;1.60;;;0.20;;
20095;SDS011;10207;50.942;6.900;2022-12-29T07:20:16;0.35;;;0.17;;
20095;SDS011;10207;50.942;6.900;2022-12-29T07:22:42;1.67;;;0.25;;
20095;SDS011;10207;50.942;6.900;2022-12-29T07:25:08;0.47;;;0.10;;
20095;SDS011;10207;50.942;6.900;2022-12-29T07:27:33;1.77;;;0.10;;
20095;SDS011;10207;50.942;6.900;2022-12-29T07:29:59;0.80;;;0.20;;
20095;SDS011;10207;50.942;6.900;2022-12-29T07:32:25;1.65;;;0.38;;
20095;SDS011;10207;50.942;6.900;2022-12-29T07:34:51;2.55;;;0.22;;
20095;SDS011;10207;50.942;6.900;2022-12-29T07:37:17;1.38;;;0.30;;
20095;SDS011;10207;50.942;6.900;2022-12-29T07:39:43;0.40;;;0.10;;
20095;SDS011;10207;50.942;6.900;2022-12-29T07:42:09;1.95;;;0.30;;
20095;SDS011;10207;50.942;6.900;2022-12-29T07:44:41;0.68;;;0.30;;
20095;SDS011;10207;50.942;6.900;2022-12-29T07:47:24;0.32;;;0.17;;
20095;SDS011;10207;50.942;6.900;2022-12-29T07:49:49;0.75;;;0.20;;
20095;SDS011;10207;50.942;6.900;2022-12-29T07:52:15;3.20;;;0.30;;
20095;SDS011;10207;50.942;6.900;2022-12-29T07:54:41;2.30;;;0.30;;
20095;SDS011;10207;50.942;6.900;2022-12-29T07:57:07;2.58;;;0.30;;
20095;SDS011;10207;50.942;6.900;2022-12-29T07:59:32;4.03;;;0.52;;
20095;SDS011;10207;50.942;6.900;2022-12-29T08:01:58;3.20;;;0.35;;
20095;SDS011;10207;50.942;6.900;2022-12-29T08:04:24;1.60;;;0.50;;
20095;SDS011;10207;50.942;6.900;2022-12-29T08:06:49;2.63;;;0.30;;
20095;SDS011;10207;50.942;6.900;2022-12-29T08:09:15;2.42;;;0.45;;
20095;SDS011;10207;50.942;6.900;2022-12-29T08:11:41;0.98;;;0.38;;
20095;SDS011;10207;50.942;6.900;2022-12-29T08:14:08;2.58;;;0.60;;
20095;SDS011;10207;50.942;6.900;2022-12-29T08:16:34;2.05;;;0.50;;
20095;SDS011;10207;50.942;6.900;2022-12-29T08:19:00;3.20;;;0.50;;
20095;SDS011;10207;50.942;6.900;2022-12-29T08:21:27;8.13;;;0.93;;
20095;SDS011;10207;50.942;6.900;2022-12-29T08:23:53;4.03;;;0.47;;
20095;SDS011;10207;50.942;6.900;2022-12-29T08:26:18;2.88;;;0.82;;
20095;SDS011;10207;50.942;6.900;2022-12-29T08:28:44;2.35;;;0.57;;
20095;SDS011;10207;50.942;6.900;2022-12-29T08:31:10;1.98;;;0.52;;
20095;SDS011;10207;50.942;6.900;2022-12-29T08:33:36;3.42;;;0.63;;
20095;SDS011;10207;50.942;6.900;2022-12-29T08:36:02;8.07;;;0.57;;
20095;SDS011;10207;50.942;6.900;2022-12-29T08:38:29;5.50;;;1.15;;
20095;SDS011;10207;50.942;6.900;2022-12-29T08:40:55;3.90;;;0.38;;
20095;SDS011;10207;50.942;6.900;2022-12-29T08:43:20;1.77;;;0.63;;
20095;SDS011;10207;50.942;6.900;2022-12-29T08:45:46;1.67;;;0.60;;
20095;SDS011;10207;50.942;6.900;2022-12-29T08:48:12;3.55;;;0.55;;
20095;SDS011;10207;50.942;6.900;2022-12-29T08:50:38;5.82;;;0.95;;
20095;SDS011;10207;50.942;6.900;2022-12-29T08:53:03;4.68;;;1.25;;
20095;SDS011;10207;50.942;6.900;2022-12-29T08:55:29;4.95;;;0.98;;
20095;SDS011;10207;50.942;6.900;2022-12-29T08:57:55;2.70;;;0.40;;
20095;SDS011;10207;50.942;6.900;2022-12-29T09:00:22;3.17;;;0.47;;
20095;SDS011;10207;50.942;6.900;2022-12-29T09:02:49;5.78;;;0.68;;
20095;SDS011;10207;50.942;6.900;2022-12-29T09:05:15;1.83;;;0.40;;
20095;SDS011;10207;50.942;6.900;2022-12-29T09:07:41;4.13;;;0.55;;
20095;SDS011;10207;50.942;6.900;2022-12-29T09:10:06;5.22;;;0.63;;
20095;SDS011;10207;50.942;6.900;2022-12-29T09:12:32;2.53;;;0.73;;
20095;SDS011;10207;50.942;6.900;2022-12-29T09:14:58;4.28;;;0.70;;
20095;SDS011;10207;50.942;6.900;2022-12-29T09:17:24;6.38;;;1.08;;
20095;SDS011;10207;50.942;6.900;2022-12-29T09:20:08;4.75;;;0.40;;
20095;SDS011;10207;50.942;6.900;2022-12-29T09:22:34;1.48;;;0.60;;
20095;SDS011;10207;50.942;6.900;2022-12-29T09:25:00;7.22;;;0.73;;
20095;SDS011;10207;50.942;6.900;2022-12-29T09:27:26;2.45;;;0.40;;
20095;SDS011;10207;50.942;6.900;2022-12-29T09:29:52;8.90;;;1.65;;
20095;SDS011;10207;50.942;6.900;2022-12-29T09:32:17;2.53;;;0.70;;
20095;SDS011;10207;50.942;6.900;2022-12-29T09:34:43;4.28;;;0.68;;
20095;SDS011;10207;50.942;6.900;2022-12-29T09:37:09;4.40;;;0.85;;
20095;SDS011;10207;50.942;6.900;2022-12-29T09:39:35;6.25;;;0.85;;
20095;SDS011;10207;50.942;6.900;2022-12-29T09:47:14;7.32;;;1.23;;
20095;SDS011;10207;50.942;6.900;2022-12-29T09:49:45;2.50;;;0.35;;
20095;SDS011;10207;50.942;6.900;2022-12-29T09:57:28;6.68;;;0.73;;
20095;SDS011;10207;50.942;6.900;2022-12-29T09:59:58;5.82;;;1.25;;
20095;SDS011;10207;50.942;6.900;2022-12-29T10:04:57;4.53;;;1.20;;
20095;SDS011;10207;50.942;6.900;2022-12-29T10:09:53;7.30;;;0.82;;
20095;SDS011;10207;50.942;6.900;2022-12-29T10:20:15;5.60;;;0.90;;
20095;SDS011;10207;50.942;6.900;2022-12-29T10:22:48;3.35;;;0.60;;
20095;SDS011;10207;50.942;6.900;2022-12-29T10:25:19;5.32;;;0.80;;
20095;SDS011;10207;50.942;6.900;2022-12-29T10:27:49;5.95;;;0.85;;
20095;SDS011;10207;50.942;6.900;2022-12-29T10:30:16;7.53;;;1.23;;
20095;SDS011;10207;50.942;6.900;2022-12-29T10:35:16;5.25;;;1.75;;
20095;SDS011;10207;50.942;6.900;2022-12-29T10:37:43;2.75;;;0.70;;
20095;SDS011;10207;50.942;6.900;2022-12-29T10:42:56;5.13;;;0.90;;
20095;SDS011;10207;50.942;6.900;2022-12-29T10:45:23;6.78;;;1.15;;
20095;SDS011;10207;50.942;6.900;2022-12-29T10:47:53;3.50;;;0.57;;
20095;SDS011;10207;50.942;6.900;2022-12-29T10:50:20;3.35;;;0.50;;
20095;SDS011;10207;50.942;6.900;2022-12-29T10:52:46;3.42;;;0.57;;
20095;SDS011;10207;50.942;6.900;2022-12-29T10:55:12;4.15;;;0.90;;
20095;SDS011;10207;50.942;6.900;2022-12-29T10:57:41;6.47;;;0.82;;
20095;SDS011;10207;50.942;6.900;2022-12-29T11:00:13;4.38;;;0.80;;
20095;SDS011;10207;50.942;6.900;2022-12-29T11:07:38;3.25;;;0.63;;
20095;SDS011;10207;50.942;6.900;2022-12-29T11:10:21;5.72;;;0.98;;
20095;SDS011;10207;50.942;6.900;2022-12-29T11:12:55;3.17;;;0.82;;
20095;SDS011;10207;50.942;6.900;2022-12-29T11:15:21;5.28;;;1.00;;
20095;SDS011;10207;50.942;6.900;2022-12-29T11:17:47;5.65;;;0.90;;
20095;SDS011;10207;50.942;6.900;2022-12-29T11:20:27;2.80;;;0.73;;
20095;SDS011;10207;50.942;6.900;2022-12-29T11:22:53;3.30;;;0.70;;
20095;SDS011;10207;50.942;6.900;2022-12-29T11:25:18;6.13;;;0.77;;
20095;SDS011;10207;50.942;6.900;2022-12-29T11:30:24;5.65;;;0.80;;
20095;SDS011;10207;50.942;6.900;2022-12-29T11:32:50;3.00;;;0.75;;
20095;SDS011;10207;50.942;6.900;2022-12-29T11:35:30;6.18;;;0.70;;
20095;SDS011;10207;50.942;6.900;2022-12-29T11:37:57;6.50;;;0.88;;
20095;SDS011;10207;50.942;6.900;2022-12-29T11:40:24;6.38;;;0.80;;
20095;SDS011;10207;50.942;6.900;2022-12-29T11:43:02;6.20;;;0.93;;
20095;SDS011;10207;50.942;6.900;2022-12-29T11:45:30;4.30;;;0.82;;
20095;SDS011;10207;50.942;6.900;2022-12-29T11:47:58;6.55;;;0.82;;
20095;SDS011;10207;50.942;6.900;2022-12-29T11:50:26;4.90;;;1.00;;
20095;SDS011;10207;50.942;6.900;2022-12-29T11:52:57;3.25;;;0.93;;
20095;SDS011;10207;50.942;6.900;2022-12-29T11:55:24;3.40;;;0.60;;
20095;SDS011;10207;50.942;6.900;2022-12-29T11:57:51;3.17;;;0.50;;
20095;SDS011;10207;50.942;6.900;2022-12-29T12:00:19;5.57;;;1.02;;
20095;SDS011;10207;50.942;6.900;2022-12-29T12:03:01;3.55;;;0.70;;
20095;SDS011;10207;50.942;6.900;2022-12-29T12:05:30;3.55;;;0.90;;
20095;SDS011;10207;50.942;6.900;2022-12-29T12:10:46;4.35;;;0.60;;
20095;SDS011;10207;50.942;6.900;2022-12-29T12:15:43;8.05;;;1.05;;
20095;SDS011;10207;50.942;6.900;2022-12-29T12:18:11;4.63;;;0.50;;
20095;SDS011;10207;50.942;6.900;2022-12-29T12:20:48;5.88;;;1.00;;
20095;SDS011;10207;50.942;6.900;2022-12-29T12:26:01;4.60;;;0.80;;
20095;SDS011;10207;50.942;6.900;2022-12-29T12:31:16;5.25;;;0.90;;
20095;SDS011;10207;50.942;6.900;2022-12-29T12:33:44;8.80;;;1.27;;
20095;SDS011;10207;50.942;6.900;2022-12-29T12:46:28;4.40;;;0.95;;
20095;SDS011;10207;50.942;6.900;2022-12-29T12:49:04;4.20;;;0.88;;
20095;SDS011;10207;50.942;6.900;2022-12-29T12:59:40;5.30;;;0.80;;
20095;SDS011;10207;50.942;6.900;2022-12-29T13:07:24;3.83;;;1.23;;
20095;SDS011;10207;50.942;6.900;2022-12-29T13:10:13;3.70;;;0.73;;
20095;SDS011;10207;50.942;6.900;2022-12-29T13:12:44;6.70;;;1.25;;
20095;SDS011;10207;50.942;6.900;2022-12-29T13:15:37;6.18;;;1.10;;
20095;SDS011;10207;50.942;6.900;2022-12-29T13:23:07;5.10;;;0.75;;
20095;SDS011;10207;50.942;6.900;2022-12-29T13:25:37;6.68;;;1.42;;
20095;SDS011;10207;50.942;6.900;2022-12-29T13:28:15;3.72;;;1.02;;
20095;SDS011;10207;50.942;6.900;2022-12-29T13:36:00;3.88;;;1.10;;
20095;SDS011;10207;50.942;6.900;2022-12-29T13:41:09;5.35;;;0.82;;
20095;SDS011;10207;50.942;6.900;2022-12-29T13:43:38;10.73;;;2.08;;
20095;SDS011;10207;50.942;6.900;2022-12-29T13:46:09;5.63;;;1.20;;
20095;SDS011;10207;50.942;6.900;2022-12-29T13:48:43;8.50;;;1.05;;
20095;SDS011;10207;50.942;6.900;2022-12-29T13:51:11;5.78;;;0.65;;
20095;SDS011;10207;50.942;6.900;2022-12-29T13:53:40;4.03;;;0.95;;
20095;SDS011;10207;50.942;6.900;2022-12-29T13:56:16;3.42;;;0.85;;
20095;SDS011;10207;50.942;6.900;2022-12-29T13:59:32;4.60;;;1.40;;
20095;SDS011;10207;50.942;6.900;2022-12-29T14:01:34;4.88;;;0.70;;
20095;SDS011;10207;50.942;6.900;2022-12-29T14:04:09;3.47;;;0.88;;
20095;SDS011;10207;50.942;6.900;2022-12-29T14:06:36;3.20;;;0.88;;
20095;SDS011;10207;50.942;6.900;2022-12-29T14:11:52;4.05;;;0.90;;
20095;SDS011;10207;50.942;6.900;2022-12-29T14:16:44;3.45;;;1.33;;
20095;SDS011;10207;50.942;6.900;2022-12-29T14:19:12;8.98;;;1.20;;
20095;SDS011;10207;50.942;6.900;2022-12-29T14:21:39;7.85;;;1.10;;
20095;SDS011;10207;50.942;6.900;2022-12-29T14:26:49;7.25;;;1.13;;
20095;SDS011;10207;50.942;6.900;2022-12-29T14:29:16;3.63;;;0.82;;
20095;SDS011;10207;50.942;6.900;2022-12-29T14:31:50;4.53;;;0.70;;
20095;SDS011;10207;50.942;6.900;2022-12-29T14:36:42;3.97;;;0.90;;
20095;SDS011;10207;50.942;6.900;2022-12-29T14:42:20;7.28;;;0.80;;
20095;SDS011;10207;50.942;6.900;2022-12-29T14:47:31;7.97;;;2.03;;
20095;SDS011;10207;50.942;6.900;2022-12-29T14:50:02;6.47;;;0.98;;
20095;SDS011;10207;50.942;6.900;2022-12-29T14:52:29;2.42;;;0.80;;
20095;SDS011;10207;50.942;6.900;2022-12-29T14:54:56;8.27;;;1.35;;
20095;SDS011;10207;50.942;6.900;2022-12-29T15:00:00;5.93;;;1.13;;
20095;SDS011;10207;50.942;6.900;2022-12-29T15:02:27;4.50;;;0.93;;
20095;SDS011;10207;50.942;6.900;2022-12-29T15:04:58;5.32;;;0.80;;
20095;SDS011;10207;50.942;6.900;2022-12-29T15:07:24;6.57;;;1.38;;
20095;SDS011;10207;50.942;6.900;2022-12-29T15:09:53;3.10;;;1.00;;
20095;SDS011;10207;50.942;6.900;2022-12-29T15:15:21;5.07;;;1.33;;
20095;SDS011;10207;50.942;6.900;2022-12-29T15:17:47;4.57;;;0.90;;
20095;SDS011;10207;50.942;6.900;2022-12-29T15:20:16;4.70;;;0.90;;
20095;SDS011;10207;50.942;6.900;2022-12-29T15:22:47;8.73;;;1.10;;
20095;SDS011;10207;50.942;6.900;2022-12-29T15:25:15;9.88;;;1.45;;
20095;SDS011;10207;50.942;6.900;2022-12-29T15:27:41;7.90;;;1.48;;
20095;SDS011;10207;50.942;6.900;2022-12-29T15:30:11;9.05;;;2.08;;
20095;SDS011;10207;50.942;6.900;2022-12-29T15:32:42;2.17;;;0.88;;
20095;SDS011;10207;50.942;6.900;2022-12-29T15:37:53;7.63;;;1.35;;
20095;SDS011;10207;50.942;6.900;2022-12-29T15:40:26;5.97;;;1.15;;
20095;SDS011;10207;50.942;6.900;2022-12-29T15:45:18;6.05;;;1.73;;
20095;SDS011;10207;50.942;6.900;2022-12-29T15:47:44;8.10;;;1.48;;
20095;SDS011;10207;50.942;6.900;2022-12-29T15:50:19;6.97;;;1.35;;
20095;SDS011;10207;50.942;6.900;2022-12-29T15:52:46;6.22;;;1.25;;
20095;SDS011;10207;50.942;6.900;2022-12-29T15:55:18;6.53;;;1.40;;
20095;SDS011;10207;50.942;6.900;2022-12-29T15:57:45;11.63;;;1.50;;
20095;SDS011;10207;50.942;6.900;2022-12-29T16:03:05;6.05;;;2.50;;
20095;SDS011;10207;50.942;6.900;2022-12-29T16:05:35;5.60;;;1.10;;
20095;SDS011;10207;50.942;6.900;2022-12-29T16:08:01;7.30;;;1.35;;
20095;SDS011;10207;50.942;6.900;2022-12-29T16:10:30;6.53;;;1.08;;
20095;SDS011;10207;50.942;6.900;2022-12-29T16:13:02;7.60;;;1.02;;
20095;SDS011;10207;50.942;6.900;2022-12-29T16:15:28;5.80;;;1.02;;
20095;SDS011;10207;50.942;6.900;2022-12-29T16:17:54;4.22;;;1.10;;
20095;SDS011;10207;50.942;6.900;2022-12-29T16:20:22;5.80;;;0.93;;
20095;SDS011;10207;50.942;6.900;2022-12-29T16:22:50;7.97;;;1.27;;
20095;SDS011;10207;50.942;6.900;2022-12-29T16:25:24;5.60;;;1.45;;
20095;SDS011;10207;50.942;6.900;2022-12-29T16:27:50;7.18;;;1.73;;
20095;SDS011;10207;50.942;6.900;2022-12-29T16:32:55;5.75;;;1.55;;
20095;SDS011;10207;50.942;6.900;2022-12-29T16:35:23;6.68;;;0.90;;
20095;SDS011;10207;50.942;6.900;2022-12-29T16:38:02;5.53;;;1.50;;
20095;SDS011;10207;50.942;6.900;2022-12-29T16:40:32;4.95;;;0.88;;
20095;SDS011;10207;50.942;6.900;2022-12-29T16:42:59;7.82;;;1.70;;
20095;SDS011;10207;50.942;6.900;2022-12-29T16:48:15;8.43;;;1.52;;
20095;SDS011;10207;50.942;6.900;2022-12-29T16:50:42;5.80;;;1.00;;
20095;SDS011;10207;50.942;6.900;2022-12-29T16:53:19;14.45;;;1.33;;
20095;SDS011;10207;50.942;6.900;2022-12-29T16:55:45;7.25;;;1.50;;
20095;SDS011;10207;50.942;6.900;2022-12-29T16:58:12;7.82;;;1.00;;
20095;SDS011;10207;50.942;6.900;2022-12-29T17:00:43;7.53;;;1.73;;
20095;SDS011;10207;50.942;6.900;2022-12-29T17:03:10;4.95;;;1.30;;
20095;SDS011;10207;50.942;6.900;2022-12-29T17:05:36;4.93;;;1.00;;
20095;SDS011;10207;50.942;6.900;2022-12-29T17:08:02;5.13;;;1.17;;
20095;SDS011;10207;50.942;6.900;2022-12-29T17:10:28;4.47;;;1.00;;
20095;SDS011;10207;50.942;6.900;2022-12-29T17:13:14;5.72;;;1.23;;
20095;SDS011;10207;50.942;6.900;2022-12-29T17:15:39;9.65;;;1.60;;
20095;SDS011;10207;50.942;6.900;2022-12-29T17:18:06;12.48;;;1.65;;
20095;SDS011;10207;50.942;6.900;2022-12-29T17:20:32;9.25;;;1.67;;
20095;SDS011;10207;50.942;6.900;2022-12-29T17:22:58;8.13;;;1.48;;
20095;SDS011;10207;50.942;6.900;2022-12-29T17:25:33;4.15;;;1.13;;
20095;SDS011;10207;50.942;6.900;2022-12-29T17:28:15;9.88;;;1.92;;
20095;SDS011;10207;50.942;6.900;2022-12-29T17:30:43;3.58;;;1.10;;
20095;SDS011;10207;50.942;6.900;2022-12-29T17:33:11;7.50;;;1.50;;
20095;SDS011;10207;50.942;6.900;2022-12-29T17:35:37;10.90;;;1.48;;
20095;SDS011;10207;50.942;6.900;2022-12-29T17:38:16;7.70;;;1.30;;